sensor_id;sensor_type;location;lat;lon;timestamp;P1;durP1;ratioP1;P2;durP2;ratioP2
65822;SDS011;52585;47.566;19.056;2023-02-22T00:00:44;3.00;;;2.30;;
65822;SDS011;52585;47.566;19.056;2023-02-22T00:03:14;2.30;;;2.10;;
65822;SDS011;52585;47.566;19.056;2023-02-22T00:05:50;2.50;;;2.20;;
65822;SDS011;52585;47.566;19.056;2023-02-22T00:08:30;2.30;;;2.10;;
65822;SDS011;52585;47.566;19.056;2023-02-22T00:10:58;3.10;;;2.30;;
65822;SDS011;52585;47.566;19.056;2023-02-22T00:13:26;2.30;;;2.00;;
65822;SDS011;52585;47.566;19.056;2023-02-22T00:15:57;2.10;;;2.00;;
65822;SDS011;52585;47.566;19.056;2023-02-22T00:18:25;2.80;;;1.80;;
65822;SDS011;52585;47.566;19.056;2023-02-22T00:20:56;2.00;;;1.80;;
65822;SDS011;52585;47.566;19.056;2023-02-22T00:23:25;1.90;;;1.80;;
65822;SDS011;52585;47.566;19.056;2023-02-22T00:25:53;2.30;;;2.10;;
65822;SDS011;52585;47.566;19.056;2023-02-22T00:28:19;2.60;;;2.20;;
65822;SDS011;52585;47.566;19.056;2023-02-22T00:30:49;1.90;;;1.80;;
65822;SDS011;52585;47.566;19.056;2023-02-22T00:33:16;2.20;;;2.00;;
65822;SDS011;52585;47.566;19.056;2023-02-22T00:35:43;2.40;;;2.00;;
65822;SDS011;52585;47.566;19.056;2023-02-22T00:38:10;3.30;;;2.40;;
65822;SDS011;52585;47.566;19.056;2023-02-22T00:40:37;2.30;;;2.10;;
65822;SDS011;52585;47.566;19.056;2023-02-22T00:43:05;2.10;;;2.00;;
65822;SDS011;52585;47.566;19.056;2023-02-22T00:45:33;4.20;;;2.20;;
65822;SDS011;52585;47.566;19.056;2023-02-22T00:48:03;2.60;;;2.10;;
65822;SDS011;52585;47.566;19.056;2023-02-22T00:50:31;2.20;;;2.00;;
65822;SDS011;52585;47.566;19.056;2023-02-22T00:52:59;2.20;;;2.00;;
65822;SDS011;52585;47.566;19.056;2023-02-22T00:55:29;3.30;;;2.30;;
65822;SDS011;52585;47.566;19.056;2023-02-22T00:57:56;2.30;;;2.10;;
65822;SDS011;52585;47.566;19.056;2023-02-22T01:00:32;2.30;;;2.10;;
65822;SDS011;52585;47.566;19.056;2023-02-22T01:03:07;3.40;;;2.10;;
65822;SDS011;52585;47.566;19.056;2023-02-22T01:05:35;2.90;;;2.00;;
65822;SDS011;52585;47.566;19.056;2023-02-22T01:08:05;2.70;;;2.40;;
65822;SDS011;52585;47.566;19.056;2023-02-22T01:10:32;2.60;;;2.40;;
65822;SDS011;52585;47.566;19.056;2023-02-22T01:13:00;2.30;;;2.10;;
65822;SDS011;52585;47.566;19.056;2023-02-22T01:15:29;2.90;;;2.00;;
65822;SDS011;52585;47.566;19.056;2023-02-22T01:17:55;4.40;;;2.30;;
65822;SDS011;52585;47.566;19.056;2023-02-22T01:20:23;3.30;;;2.30;;
65822;SDS011;52585;47.566;19.056;2023-02-22T01:22:52;2.30;;;2.10;;
65822;SDS011;52585;47.566;19.056;2023-02-22T01:25:25;2.20;;;2.10;;
65822;SDS011;52585;47.566;19.056;2023-02-22T01:27:54;2.40;;;2.20;;
65822;SDS011;52585;47.566;19.056;2023-02-22T01:30:24;5.30;;;2.10;;
65822;SDS011;52585;47.566;19.056;2023-02-22T01:32:52;3.10;;;2.50;;
65822;SDS011;52585;47.566;19.056;2023-02-22T01:35:24;2.10;;;1.90;;
65822;SDS011;52585;47.566;19.056;2023-02-22T01:37:52;2.20;;;2.00;;
65822;SDS011;52585;47.566;19.056;2023-02-22T01:40:23;2.10;;;2.00;;
65822;SDS011;52585;47.566;19.056;2023-02-22T01:45:39;2.20;;;1.90;;
65822;SDS011;52585;47.566;19.056;2023-02-22T01:48:16;3.00;;;2.00;;
65822;SDS011;52585;47.566;19.056;2023-02-22T01:51:01;2.40;;;2.10;;
65822;SDS011;52585;47.566;19.056;2023-02-22T01:53:40;2.90;;;2.30;;
65822;SDS011;52585;47.566;19.056;2023-02-22T01:56:23;2.70;;;2.50;;
65822;SDS011;52585;47.566;19.056;2023-02-22T01:58:58;2.40;;;2.20;;
65822;SDS011;52585;47.566;19.056;2023-02-22T02:01:28;2.40;;;2.20;;
65822;SDS011;52585;47.566;19.056;2023-02-22T02:03:56;3.40;;;2.30;;
65822;SDS011;52585;47.566;19.056;2023-02-22T02:06:25;2.40;;;2.10;;
65822;SDS011;52585;47.566;19.056;2023-02-22T02:09:03;3.80;;;2.20;;
65822;SDS011;52585;47.566;19.056;2023-02-22T02:11:44;2.40;;;2.20;;
65822;SDS011;52585;47.566;19.056;2023-02-22T02:14:12;2.40;;;2.20;;
65822;SDS011;52585;47.566;19.056;2023-02-22T02:16:44;2.30;;;2.10;;
65822;SDS011;52585;47.566;19.056;2023-02-22T02:44:01;3.40;;;2.50;;
65822;SDS011;52585;47.566;19.056;2023-02-22T02:47:05;2.50;;;2.00;;
65822;SDS011;52585;47.566;19.056;2023-02-22T02:52:34;2.20;;;2.00;;
65822;SDS011;52585;47.566;19.056;2023-02-22T02:55:03;2.30;;;2.10;;
65822;SDS011;52585;47.566;19.056;2023-02-22T02:57:32;2.70;;;2.40;;
65822;SDS011;52585;47.566;19.056;2023-02-22T02:59:58;3.60;;;2.40;;
65822;SDS011;52585;47.566;19.056;2023-02-22T03:02:48;2.90;;;2.40;;
65822;SDS011;52585;47.566;19.056;2023-02-22T03:08:39;2.40;;;2.20;;
65822;SDS011;52585;47.566;19.056;2023-02-22T03:11:47;2.60;;;2.30;;
65822;SDS011;52585;47.566;19.056;2023-02-22T03:17:27;2.60;;;2.40;;
65822;SDS011;52585;47.566;19.056;2023-02-22T03:22:46;2.60;;;2.40;;
65822;SDS011;52585;47.566;19.056;2023-02-22T03:25:51;2.40;;;2.20;;
65822;SDS011;52585;47.566;19.056;2023-02-22T03:28:23;2.60;;;2.40;;
65822;SDS011;52585;47.566;19.056;2023-02-22T03:30:57;2.60;;;2.40;;
65822;SDS011;52585;47.566;19.056;2023-02-22T03:33:39;2.90;;;2.70;;
65822;SDS011;52585;47.566;19.056;2023-02-22T03:36:21;2.80;;;2.60;;
65822;SDS011;52585;47.566;19.056;2023-02-22T03:38:52;2.60;;;2.40;;
65822;SDS011;52585;47.566;19.056;2023-02-22T03:41:23;2.70;;;2.50;;
65822;SDS011;52585;47.566;19.056;2023-02-22T03:43:54;2.40;;;2.10;;
65822;SDS011;52585;47.566;19.056;2023-02-22T03:46:26;2.70;;;2.50;;
65822;SDS011;52585;47.566;19.056;2023-02-22T03:52:21;2.60;;;2.30;;
65822;SDS011;52585;47.566;19.056;2023-02-22T03:54:52;2.90;;;2.20;;
65822;SDS011;52585;47.566;19.056;2023-02-22T03:57:27;3.10;;;2.50;;
65822;SDS011;52585;47.566;19.056;2023-02-22T03:59:56;4.20;;;2.80;;
65822;SDS011;52585;47.566;19.056;2023-02-22T04:02:21;3.20;;;2.70;;
65822;SDS011;52585;47.566;19.056;2023-02-22T04:04:48;2.80;;;2.20;;
65822;SDS011;52585;47.566;19.056;2023-02-22T04:07:15;3.20;;;2.90;;
65822;SDS011;52585;47.566;19.056;2023-02-22T04:09:41;4.30;;;2.50;;
65822;SDS011;52585;47.566;19.056;2023-02-22T04:12:07;3.00;;;2.70;;
65822;SDS011;52585;47.566;19.056;2023-02-22T04:14:33;2.90;;;2.60;;
65822;SDS011;52585;47.566;19.056;2023-02-22T04:16:59;3.10;;;2.70;;
65822;SDS011;52585;47.566;19.056;2023-02-22T04:19:24;3.00;;;2.60;;
65822;SDS011;52585;47.566;19.056;2023-02-22T04:21:50;2.80;;;2.60;;
65822;SDS011;52585;47.566;19.056;2023-02-22T04:24:16;3.50;;;2.70;;
65822;SDS011;52585;47.566;19.056;2023-02-22T04:26:41;3.10;;;2.80;;
65822;SDS011;52585;47.566;19.056;2023-02-22T04:29:07;3.00;;;2.70;;
65822;SDS011;52585;47.566;19.056;2023-02-22T04:31:33;3.00;;;2.70;;
65822;SDS011;52585;47.566;19.056;2023-02-22T04:33:59;2.90;;;2.70;;
65822;SDS011;52585;47.566;19.056;2023-02-22T04:36:26;3.10;;;2.90;;
65822;SDS011;52585;47.566;19.056;2023-02-22T04:38:53;5.30;;;2.80;;
65822;SDS011;52585;47.566;19.056;2023-02-22T04:41:19;3.30;;;2.80;;
65822;SDS011;52585;47.566;19.056;2023-02-22T04:43:45;3.00;;;2.60;;
65822;SDS011;52585;47.566;19.056;2023-02-22T04:46:11;3.90;;;3.20;;
65822;SDS011;52585;47.566;19.056;2023-02-22T04:48:38;3.20;;;2.90;;
65822;SDS011;52585;47.566;19.056;2023-02-22T04:51:04;2.90;;;2.70;;
65822;SDS011;52585;47.566;19.056;2023-02-22T04:53:30;3.10;;;2.80;;
65822;SDS011;52585;47.566;19.056;2023-02-22T04:55:56;3.00;;;2.60;;
65822;SDS011;52585;47.566;19.056;2023-02-22T04:58:22;3.50;;;3.00;;
65822;SDS011;52585;47.566;19.056;2023-02-22T05:00:49;3.00;;;2.70;;
65822;SDS011;52585;47.566;19.056;2023-02-22T05:03:15;4.30;;;3.20;;
65822;SDS011;52585;47.566;19.056;2023-02-22T05:05:41;3.40;;;2.90;;
65822;SDS011;52585;47.566;19.056;2023-02-22T05:08:06;3.50;;;3.20;;
65822;SDS011;52585;47.566;19.056;2023-02-22T05:10:32;4.90;;;3.00;;
65822;SDS011;52585;47.566;19.056;2023-02-22T05:12:57;4.30;;;3.60;;
65822;SDS011;52585;47.566;19.056;2023-02-22T05:15:23;3.30;;;3.00;;
65822;SDS011;52585;47.566;19.056;2023-02-22T05:17:50;3.80;;;3.40;;
65822;SDS011;52585;47.566;19.056;2023-02-22T05:20:25;3.80;;;3.50;;
65822;SDS011;52585;47.566;19.056;2023-02-22T05:22:55;4.10;;;3.60;;
65822;SDS011;52585;47.566;19.056;2023-02-22T05:25:23;4.10;;;3.60;;
65822;SDS011;52585;47.566;19.056;2023-02-22T05:27:58;10.70;;;3.30;;
65822;SDS011;52585;47.566;19.056;2023-02-22T05:30:32;3.50;;;3.20;;
65822;SDS011;52585;47.566;19.056;2023-02-22T05:33:00;3.80;;;3.40;;
65822;SDS011;52585;47.566;19.056;2023-02-22T05:35:27;3.80;;;3.30;;
65822;SDS011;52585;47.566;19.056;2023-02-22T05:37:54;3.90;;;3.50;;
65822;SDS011;52585;47.566;19.056;2023-02-22T05:40:23;5.20;;;3.50;;
65822;SDS011;52585;47.566;19.056;2023-02-22T05:42:52;4.00;;;3.10;;
65822;SDS011;52585;47.566;19.056;2023-02-22T05:45:20;3.80;;;3.40;;
65822;SDS011;52585;47.566;19.056;2023-02-22T05:47:48;4.90;;;3.10;;
65822;SDS011;52585;47.566;19.056;2023-02-22T05:50:15;5.00;;;3.50;;
65822;SDS011;52585;47.566;19.056;2023-02-22T05:52:41;5.10;;;3.40;;
65822;SDS011;52585;47.566;19.056;2023-02-22T05:55:09;4.30;;;3.00;;
65822;SDS011;52585;47.566;19.056;2023-02-22T05:57:35;6.80;;;3.10;;
65822;SDS011;52585;47.566;19.056;2023-02-22T06:00:04;4.50;;;3.40;;
65822;SDS011;52585;47.566;19.056;2023-02-22T06:02:32;3.70;;;3.30;;
65822;SDS011;52585;47.566;19.056;2023-02-22T06:04:59;3.30;;;3.00;;
65822;SDS011;52585;47.566;19.056;2023-02-22T06:07:25;4.70;;;3.20;;
65822;SDS011;52585;47.566;19.056;2023-02-22T06:09:51;4.40;;;3.50;;
65822;SDS011;52585;47.566;19.056;2023-02-22T06:12:18;4.00;;;3.40;;
65822;SDS011;52585;47.566;19.056;2023-02-22T06:14:44;4.10;;;3.30;;
65822;SDS011;52585;47.566;19.056;2023-02-22T06:17:12;3.40;;;3.10;;
65822;SDS011;52585;47.566;19.056;2023-02-22T06:19:38;3.90;;;3.40;;
65822;SDS011;52585;47.566;19.056;2023-02-22T06:22:13;3.80;;;3.40;;
65822;SDS011;52585;47.566;19.056;2023-02-22T06:24:41;3.30;;;3.00;;
65822;SDS011;52585;47.566;19.056;2023-02-22T06:27:07;3.90;;;3.60;;
65822;SDS011;52585;47.566;19.056;2023-02-22T06:29:33;3.90;;;3.30;;
65822;SDS011;52585;47.566;19.056;2023-02-22T06:31:58;3.50;;;3.10;;
65822;SDS011;52585;47.566;19.056;2023-02-22T06:34:24;3.60;;;3.00;;
65822;SDS011;52585;47.566;19.056;2023-02-22T06:36:49;4.10;;;3.50;;
65822;SDS011;52585;47.566;19.056;2023-02-22T06:39:15;4.80;;;3.10;;
65822;SDS011;52585;47.566;19.056;2023-02-22T06:41:43;3.80;;;3.50;;
65822;SDS011;52585;47.566;19.056;2023-02-22T06:44:12;3.80;;;3.50;;
65822;SDS011;52585;47.566;19.056;2023-02-22T06:46:38;7.80;;;3.70;;
65822;SDS011;52585;47.566;19.056;2023-02-22T06:49:05;6.50;;;3.60;;
65822;SDS011;52585;47.566;19.056;2023-02-22T06:51:35;6.20;;;3.60;;
65822;SDS011;52585;47.566;19.056;2023-02-22T06:54:02;3.80;;;3.50;;
65822;SDS011;52585;47.566;19.056;2023-02-22T06:56:28;6.90;;;3.90;;
65822;SDS011;52585;47.566;19.056;2023-02-22T06:58:54;3.30;;;3.00;;
65822;SDS011;52585;47.566;19.056;2023-02-22T07:01:19;5.10;;;3.40;;
65822;SDS011;52585;47.566;19.056;2023-02-22T07:03:45;7.40;;;3.60;;
65822;SDS011;52585;47.566;19.056;2023-02-22T07:06:13;4.50;;;3.50;;
65822;SDS011;52585;47.566;19.056;2023-02-22T07:08:39;4.20;;;3.70;;
65822;SDS011;52585;47.566;19.056;2023-02-22T07:11:04;5.20;;;3.90;;
65822;SDS011;52585;47.566;19.056;2023-02-22T07:13:30;4.00;;;3.40;;
65822;SDS011;52585;47.566;19.056;2023-02-22T07:15:56;3.90;;;3.60;;
65822;SDS011;52585;47.566;19.056;2023-02-22T07:18:21;4.50;;;4.00;;
65822;SDS011;52585;47.566;19.056;2023-02-22T07:20:49;4.30;;;3.80;;
65822;SDS011;52585;47.566;19.056;2023-02-22T07:23:15;4.60;;;3.40;;
65822;SDS011;52585;47.566;19.056;2023-02-22T07:25:42;3.60;;;3.20;;
65822;SDS011;52585;47.566;19.056;2023-02-22T07:28:09;4.50;;;3.40;;
65822;SDS011;52585;47.566;19.056;2023-02-22T07:30:35;4.30;;;3.90;;
65822;SDS011;52585;47.566;19.056;2023-02-22T07:33:07;5.10;;;3.80;;
65822;SDS011;52585;47.566;19.056;2023-02-22T07:38:13;5.20;;;3.90;;
65822;SDS011;52585;47.566;19.056;2023-02-22T07:40:41;3.70;;;3.30;;
65822;SDS011;52585;47.566;19.056;2023-02-22T07:45:46;4.00;;;3.60;;
65822;SDS011;52585;47.566;19.056;2023-02-22T07:48:15;4.60;;;3.80;;
65822;SDS011;52585;47.566;19.056;2023-02-22T07:50:41;5.20;;;3.90;;
65822;SDS011;52585;47.566;19.056;2023-02-22T07:53:11;4.40;;;3.90;;
65822;SDS011;52585;47.566;19.056;2023-02-22T07:55:38;6.60;;;3.90;;
65822;SDS011;52585;47.566;19.056;2023-02-22T07:58:06;4.70;;;4.00;;
65822;SDS011;52585;47.566;19.056;2023-02-22T08:00:35;4.40;;;3.70;;
65822;SDS011;52585;47.566;19.056;2023-02-22T08:03:05;4.20;;;3.80;;
65822;SDS011;52585;47.566;19.056;2023-02-22T08:05:34;4.50;;;3.60;;
65822;SDS011;52585;47.566;19.056;2023-02-22T08:08:02;4.20;;;3.90;;
65822;SDS011;52585;47.566;19.056;2023-02-22T08:10:30;4.20;;;3.80;;
65822;SDS011;52585;47.566;19.056;2023-02-22T08:12:57;4.00;;;3.60;;
65822;SDS011;52585;47.566;19.056;2023-02-22T08:15:30;6.20;;;4.20;;
65822;SDS011;52585;47.566;19.056;2023-02-22T08:17:59;5.20;;;3.50;;
65822;SDS011;52585;47.566;19.056;2023-02-22T08:20:27;5.80;;;3.70;;
65822;SDS011;52585;47.566;19.056;2023-02-22T08:22:54;4.90;;;4.10;;
65822;SDS011;52585;47.566;19.056;2023-02-22T08:25:23;4.70;;;4.20;;
65822;SDS011;52585;47.566;19.056;2023-02-22T08:27:51;4.70;;;3.70;;
65822;SDS011;52585;47.566;19.056;2023-02-22T08:30:21;4.40;;;3.90;;
65822;SDS011;52585;47.566;19.056;2023-02-22T08:32:49;5.30;;;3.80;;
65822;SDS011;52585;47.566;19.056;2023-02-22T08:35:17;4.60;;;3.80;;
65822;SDS011;52585;47.566;19.056;2023-02-22T08:37:47;4.00;;;3.70;;
65822;SDS011;52585;47.566;19.056;2023-02-22T08:40:18;4.20;;;3.80;;
65822;SDS011;52585;47.566;19.056;2023-02-22T08:42:46;8.50;;;3.70;;
65822;SDS011;52585;47.566;19.056;2023-02-22T08:45:12;6.30;;;4.50;;
65822;SDS011;52585;47.566;19.056;2023-02-22T08:47:38;7.20;;;3.90;;
65822;SDS011;52585;47.566;19.056;2023-02-22T08:50:05;4.70;;;3.80;;
65822;SDS011;52585;47.566;19.056;2023-02-22T08:52:32;5.40;;;4.20;;
65822;SDS011;52585;47.566;19.056;2023-02-22T08:54:57;4.20;;;3.70;;
65822;SDS011;52585;47.566;19.056;2023-02-22T08:57:23;6.60;;;3.80;;
65822;SDS011;52585;47.566;19.056;2023-02-22T08:59:49;4.30;;;3.80;;
65822;SDS011;52585;47.566;19.056;2023-02-22T09:02:16;4.30;;;3.50;;
65822;SDS011;52585;47.566;19.056;2023-02-22T09:04:44;3.40;;;3.10;;
65822;SDS011;52585;47.566;19.056;2023-02-22T09:07:12;6.20;;;3.30;;
65822;SDS011;52585;47.566;19.056;2023-02-22T09:09:38;4.10;;;3.40;;
65822;SDS011;52585;47.566;19.056;2023-02-22T09:12:04;3.50;;;3.20;;
65822;SDS011;52585;47.566;19.056;2023-02-22T09:14:29;3.80;;;3.30;;
65822;SDS011;52585;47.566;19.056;2023-02-22T09:16:55;5.20;;;3.60;;
65822;SDS011;52585;47.566;19.056;2023-02-22T09:19:21;4.10;;;3.80;;
65822;SDS011;52585;47.566;19.056;2023-02-22T09:21:57;4.90;;;3.70;;
65822;SDS011;52585;47.566;19.056;2023-02-22T09:24:24;4.60;;;3.20;;
65822;SDS011;52585;47.566;19.056;2023-02-22T09:26:50;4.20;;;3.80;;
65822;SDS011;52585;47.566;19.056;2023-02-22T09:29:20;3.60;;;3.30;;
65822;SDS011;52585;47.566;19.056;2023-02-22T09:31:48;4.70;;;3.80;;
65822;SDS011;52585;47.566;19.056;2023-02-22T09:34:16;3.80;;;3.50;;
65822;SDS011;52585;47.566;19.056;2023-02-22T09:36:45;3.80;;;3.40;;
65822;SDS011;52585;47.566;19.056;2023-02-22T09:39:13;4.10;;;3.70;;
65822;SDS011;52585;47.566;19.056;2023-02-22T09:45:59;3.90;;;3.50;;
65822;SDS011;52585;47.566;19.056;2023-02-22T09:48:15;4.60;;;3.60;;
65822;SDS011;52585;47.566;19.056;2023-02-22T09:50:45;6.90;;;4.40;;
65822;SDS011;52585;47.566;19.056;2023-02-22T09:55:50;5.30;;;4.80;;
65822;SDS011;52585;47.566;19.056;2023-02-22T09:58:24;6.70;;;5.00;;
65822;SDS011;52585;47.566;19.056;2023-02-22T10:00:56;6.70;;;4.50;;
65822;SDS011;52585;47.566;19.056;2023-02-22T10:03:30;6.00;;;4.90;;
65822;SDS011;52585;47.566;19.056;2023-02-22T10:06:12;6.30;;;5.00;;
65822;SDS011;52585;47.566;19.056;2023-02-22T10:08:41;6.90;;;5.00;;
65822;SDS011;52585;47.566;19.056;2023-02-22T10:11:43;8.90;;;4.70;;
65822;SDS011;52585;47.566;19.056;2023-02-22T10:17:05;11.30;;;4.40;;
65822;SDS011;52585;47.566;19.056;2023-02-22T10:26:22;6.00;;;4.20;;
65822;SDS011;52585;47.566;19.056;2023-02-22T10:31:33;7.60;;;4.90;;
65822;SDS011;52585;47.566;19.056;2023-02-22T10:34:11;6.60;;;5.10;;
65822;SDS011;52585;47.566;19.056;2023-02-22T10:36:42;6.00;;;5.30;;
65822;SDS011;52585;47.566;19.056;2023-02-22T10:39:30;7.90;;;5.60;;
65822;SDS011;52585;47.566;19.056;2023-02-22T10:42:00;5.10;;;4.60;;
65822;SDS011;52585;47.566;19.056;2023-02-22T10:44:37;6.00;;;5.00;;
65822;SDS011;52585;47.566;19.056;2023-02-22T10:47:06;7.50;;;5.10;;
65822;SDS011;52585;47.566;19.056;2023-02-22T10:49:43;6.90;;;5.00;;
65822;SDS011;52585;47.566;19.056;2023-02-22T10:52:33;8.90;;;5.70;;
65822;SDS011;52585;47.566;19.056;2023-02-22T10:55:00;7.00;;;6.30;;
65822;SDS011;52585;47.566;19.056;2023-02-22T10:57:33;6.60;;;5.50;;
65822;SDS011;52585;47.566;19.056;2023-02-22T11:00:32;5.90;;;5.20;;
65822;SDS011;52585;47.566;19.056;2023-02-22T11:05:46;6.40;;;5.60;;
65822;SDS011;52585;47.566;19.056;2023-02-22T11:10:46;6.20;;;5.30;;
65822;SDS011;52585;47.566;19.056;2023-02-22T11:15:51;6.50;;;5.90;;
65822;SDS011;52585;47.566;19.056;2023-02-22T11:18:27;7.20;;;6.30;;
65822;SDS011;52585;47.566;19.056;2023-02-22T11:21:10;8.00;;;6.30;;
65822;SDS011;52585;47.566;19.056;2023-02-22T11:23:39;7.10;;;6.00;;
65822;SDS011;52585;47.566;19.056;2023-02-22T11:26:09;11.60;;;6.60;;
65822;SDS011;52585;47.566;19.056;2023-02-22T11:28:49;9.20;;;6.50;;
65822;SDS011;52585;47.566;19.056;2023-02-22T11:31:28;6.50;;;5.70;;
65822;SDS011;52585;47.566;19.056;2023-02-22T11:33:59;9.60;;;6.70;;
65822;SDS011;52585;47.566;19.056;2023-02-22T11:36:32;9.50;;;5.70;;
65822;SDS011;52585;47.566;19.056;2023-02-22T11:39:29;8.40;;;6.00;;
65822;SDS011;52585;47.566;19.056;2023-02-22T11:42:35;10.50;;;6.30;;
65822;SDS011;52585;47.566;19.056;2023-02-22T11:45:14;7.40;;;6.60;;
65822;SDS011;52585;47.566;19.056;2023-02-22T11:47:49;7.70;;;5.70;;
65822;SDS011;52585;47.566;19.056;2023-02-22T11:50:56;8.20;;;5.90;;
65822;SDS011;52585;47.566;19.056;2023-02-22T11:56:24;11.20;;;6.20;;
65822;SDS011;52585;47.566;19.056;2023-02-22T12:01:38;8.80;;;5.80;;
65822;SDS011;52585;47.566;19.056;2023-02-22T12:10:45;9.40;;;6.10;;
65822;SDS011;52585;47.566;19.056;2023-02-22T12:13:34;13.20;;;6.90;;
65822;SDS011;52585;47.566;19.056;2023-02-22T12:16:26;9.40;;;5.90;;
65822;SDS011;52585;47.566;19.056;2023-02-22T12:19:32;6.30;;;5.60;;
65822;SDS011;52585;47.566;19.056;2023-02-22T12:22:19;8.60;;;6.30;;
65822;SDS011;52585;47.566;19.056;2023-02-22T12:27:56;12.90;;;7.10;;
65822;SDS011;52585;47.566;19.056;2023-02-22T12:30:36;12.70;;;6.90;;
65822;SDS011;52585;47.566;19.056;2023-02-22T12:33:11;9.50;;;6.60;;
65822;SDS011;52585;47.566;19.056;2023-02-22T12:35:47;11.10;;;6.90;;
65822;SDS011;52585;47.566;19.056;2023-02-22T12:38:28;7.60;;;5.80;;
65822;SDS011;52585;47.566;19.056;2023-02-22T12:41:12;8.80;;;7.00;;
65822;SDS011;52585;47.566;19.056;2023-02-22T12:43:47;8.40;;;6.70;;
65822;SDS011;52585;47.566;19.056;2023-02-22T12:46:27;7.10;;;6.30;;
65822;SDS011;52585;47.566;19.056;2023-02-22T13:00:43;8.30;;;6.20;;
65822;SDS011;52585;47.566;19.056;2023-02-22T13:05:39;8.70;;;6.70;;
65822;SDS011;52585;47.566;19.056;2023-02-22T13:08:21;8.70;;;6.70;;
65822;SDS011;52585;47.566;19.056;2023-02-22T13:11:37;8.80;;;6.90;;
65822;SDS011;52585;47.566;19.056;2023-02-22T13:17:12;8.60;;;7.10;;
65822;SDS011;52585;47.566;19.056;2023-02-22T13:28:47;10.50;;;6.50;;
65822;SDS011;52585;47.566;19.056;2023-02-22T13:34:30;7.20;;;6.40;;
65822;SDS011;52585;47.566;19.056;2023-02-22T13:54:41;12.20;;;6.90;;
65822;SDS011;52585;47.566;19.056;2023-02-22T13:57:39;8.60;;;6.20;;
65822;SDS011;52585;47.566;19.056;2023-02-22T14:05:47;7.70;;;6.60;;
65822;SDS011;52585;47.566;19.056;2023-02-22T14:10:46;8.80;;;7.00;;
65822;SDS011;52585;47.566;19.056;2023-02-22T14:13:17;9.10;;;6.90;;
65822;SDS011;52585;47.566;19.056;2023-02-22T14:18:41;8.40;;;6.20;;
65822;SDS011;52585;47.566;19.056;2023-02-22T14:31:23;12.30;;;6.80;;
65822;SDS011;52585;47.566;19.056;2023-02-22T14:34:10;9.10;;;6.00;;
65822;SDS011;52585;47.566;19.056;2023-02-22T14:37:02;10.20;;;6.60;;
65822;SDS011;52585;47.566;19.056;2023-02-22T14:39:38;7.20;;;5.60;;
65822;SDS011;52585;47.566;19.056;2023-02-22T14:50:10;6.10;;;4.20;;
65822;SDS011;52585;47.566;19.056;2023-02-22T14:52:43;7.50;;;4.90;;
65822;SDS011;52585;47.566;19.056;2023-02-22T14:55:19;8.30;;;4.00;;
65822;SDS011;52585;47.566;19.056;2023-02-22T14:58:09;8.20;;;4.80;;
65822;SDS011;52585;47.566;19.056;2023-02-22T15:00:48;6.50;;;4.00;;
65822;SDS011;52585;47.566;19.056;2023-02-22T15:03:31;7.50;;;4.30;;
65822;SDS011;52585;47.566;19.056;2023-02-22T15:08:41;10.00;;;4.40;;
65822;SDS011;52585;47.566;19.056;2023-02-22T15:11:29;7.00;;;4.70;;
65822;SDS011;52585;47.566;19.056;2023-02-22T15:16:29;6.50;;;4.00;;
65822;SDS011;52585;47.566;19.056;2023-02-22T15:18:59;8.30;;;4.30;;
65822;SDS011;52585;47.566;19.056;2023-02-22T15:21:32;5.90;;;4.40;;
65822;SDS011;52585;47.566;19.056;2023-02-22T15:24:04;9.00;;;5.00;;
65822;SDS011;52585;47.566;19.056;2023-02-22T15:26:37;8.30;;;5.00;;
65822;SDS011;52585;47.566;19.056;2023-02-22T15:29:15;10.00;;;4.70;;
65822;SDS011;52585;47.566;19.056;2023-02-22T15:31:45;10.80;;;5.00;;
65822;SDS011;52585;47.566;19.056;2023-02-22T15:36:52;7.10;;;4.50;;
65822;SDS011;52585;47.566;19.056;2023-02-22T15:39:28;8.50;;;4.70;;
65822;SDS011;52585;47.566;19.056;2023-02-22T15:42:15;6.50;;;4.60;;
65822;SDS011;52585;47.566;19.056;2023-02-22T15:44:50;7.40;;;4.40;;
65822;SDS011;52585;47.566;19.056;2023-02-22T15:47:28;7.10;;;4.80;;
65822;SDS011;52585;47.566;19.056;2023-02-22T15:50:22;7.60;;;4.90;;
65822;SDS011;52585;47.566;19.056;2023-02-22T15:55:46;9.50;;;4.70;;
65822;SDS011;52585;47.566;19.056;2023-02-22T16:00:42;10.90;;;5.20;;
65822;SDS011;52585;47.566;19.056;2023-02-22T16:03:12;7.20;;;5.10;;
65822;SDS011;52585;47.566;19.056;2023-02-22T16:05:50;9.30;;;4.90;;
65822;SDS011;52585;47.566;19.056;2023-02-22T16:08:26;7.60;;;5.70;;
65822;SDS011;52585;47.566;19.056;2023-02-22T16:11:08;6.80;;;5.00;;
65822;SDS011;52585;47.566;19.056;2023-02-22T16:13:40;9.90;;;5.30;;
65822;SDS011;52585;47.566;19.056;2023-02-22T16:18:41;12.70;;;5.20;;
65822;SDS011;52585;47.566;19.056;2023-02-22T16:21:10;8.50;;;5.20;;
65822;SDS011;52585;47.566;19.056;2023-02-22T16:23:49;9.00;;;5.30;;
65822;SDS011;52585;47.566;19.056;2023-02-22T16:26:30;8.90;;;5.40;;
65822;SDS011;52585;47.566;19.056;2023-02-22T16:29:00;9.70;;;5.70;;
65822;SDS011;52585;47.566;19.056;2023-02-22T16:31:31;12.00;;;5.80;;
65822;SDS011;52585;47.566;19.056;2023-02-22T16:34:00;9.00;;;5.70;;
65822;SDS011;52585;47.566;19.056;2023-02-22T16:39:23;12.60;;;6.40;;
65822;SDS011;52585;47.566;19.056;2023-02-22T16:41:58;11.20;;;6.00;;
65822;SDS011;52585;47.566;19.056;2023-02-22T16:44:27;9.20;;;6.00;;
65822;SDS011;52585;47.566;19.056;2023-02-22T16:46:56;11.00;;;5.50;;
65822;SDS011;52585;47.566;19.056;2023-02-22T16:49:23;12.40;;;6.40;;
65822;SDS011;52585;47.566;19.056;2023-02-22T16:51:53;10.90;;;6.10;;
65822;SDS011;52585;47.566;19.056;2023-02-22T16:54:42;10.00;;;6.00;;
65822;SDS011;52585;47.566;19.056;2023-02-22T16:57:19;11.90;;;6.70;;
65822;SDS011;52585;47.566;19.056;2023-02-22T16:59:48;11.80;;;6.30;;
65822;SDS011;52585;47.566;19.056;2023-02-22T17:02:17;10.90;;;6.50;;
65822;SDS011;52585;47.566;19.056;2023-02-22T17:04:44;10.70;;;5.90;;
65822;SDS011;52585;47.566;19.056;2023-02-22T17:07:21;13.00;;;6.30;;
65822;SDS011;52585;47.566;19.056;2023-02-22T17:09:58;10.60;;;6.30;;
65822;SDS011;52585;47.566;19.056;2023-02-22T17:12:25;8.30;;;5.90;;
65822;SDS011;52585;47.566;19.056;2023-02-22T17:14:53;10.10;;;6.80;;
65822;SDS011;52585;47.566;19.056;2023-02-22T17:17:19;11.00;;;6.30;;
65822;SDS011;52585;47.566;19.056;2023-02-22T17:19:45;9.50;;;6.80;;
65822;SDS011;52585;47.566;19.056;2023-02-22T17:22:19;11.50;;;7.10;;
65822;SDS011;52585;47.566;19.056;2023-02-22T17:24:46;13.50;;;6.70;;
65822;SDS011;52585;47.566;19.056;2023-02-22T17:27:13;9.80;;;6.20;;
65822;SDS011;52585;47.566;19.056;2023-02-22T17:29:39;13.10;;;6.80;;
65822;SDS011;52585;47.566;19.056;2023-02-22T17:32:09;11.50;;;7.10;;
65822;SDS011;52585;47.566;19.056;2023-02-22T17:34:37;11.30;;;7.30;;
65822;SDS011;52585;47.566;19.056;2023-02-22T17:37:03;12.10;;;7.40;;
65822;SDS011;52585;47.566;19.056;2023-02-22T17:39:29;9.90;;;6.40;;
65822;SDS011;52585;47.566;19.056;2023-02-22T17:41:55;14.70;;;7.40;;
65822;SDS011;52585;47.566;19.056;2023-02-22T17:44:24;12.20;;;7.70;;
65822;SDS011;52585;47.566;19.056;2023-02-22T17:46:51;15.30;;;8.40;;
65822;SDS011;52585;47.566;19.056;2023-02-22T17:49:18;16.80;;;8.60;;
65822;SDS011;52585;47.566;19.056;2023-02-22T17:51:44;18.00;;;8.50;;
65822;SDS011;52585;47.566;19.056;2023-02-22T17:54:15;14.30;;;7.90;;
65822;SDS011;52585;47.566;19.056;2023-02-22T17:56:42;14.80;;;8.70;;
65822;SDS011;52585;47.566;19.056;2023-02-22T17:59:10;14.20;;;8.50;;
65822;SDS011;52585;47.566;19.056;2023-02-22T18:01:41;14.20;;;7.80;;
65822;SDS011;52585;47.566;19.056;2023-02-22T18:04:08;11.40;;;7.50;;